Kinsley, Kansas
Current Conditions -  °F | °C
As of 2:52 AM on Sunday 21 Dec 2014 (Local Time) from KDDC Reporting Station
Moderate Fog Moderate Fog  
Wind Chill: 26°   Ceiling: 100
Heat Index: 36°   Visibility: 0.25mi
Dew Point: 34°   Wind: 18mph
Humidity: 93%   Direction: 200°SSW
Pressure: 29.95"   Gusts: NA
Location:  37.92°N, 99.41°W
Report Text: KDDC 210852Z AUTO 20016KT 1/4SM FG VV001 02/01 A2995 RMK AO2 SLP149 T00220011 56007
Loading
Personal Weather Stations






























Interactive Weather Map New forecast layout! Learn more

10-Day Weather Forecast

Advertisements
Track Severe Weather on mobile